Time;durP1;ratioP1;P1;durP2;ratioP2;P2;SDS_P1;SDS_P2;PMS_P1;PMS_P2;Temp;Humidity;BMP_temperature;BMP_pressure;BME280_temperature;BME280_humidity;BME280_pressure;Samples;Min_cycle;Max_cycle;Signal;HPM_P1;HPM_P2
2021/04/28 00:01:56;;;;;;;15.47;6.47;;;4.10;90.40;;;;;;5110062;28;20069;-61
2021/04/28 00:04:22;;;;;;;10.45;5.82;;;4.10;91.10;;;;;;5109813;28;20438;-61
2021/04/28 00:06:49;;;;;;;9.80;5.87;;;4.00;91.60;;;;;;5109923;28;20055;-60
2021/04/28 00:09:16;;;;;;;9.73;5.72;;;4.00;92.00;;;;;;5109906;28;20040;-61
2021/04/28 00:11:42;;;;;;;9.85;6.53;;;3.90;91.70;;;;;;5109543;28;20050;-61
2021/04/28 00:14:08;;;;;;;10.20;5.70;;;3.90;90.60;;;;;;5109436;28;20044;-61
2021/04/28 00:16:35;;;;;;;11.43;6.32;;;3.90;90.60;;;;;;5109706;28;20313;-61
2021/04/28 00:19:02;;;;;;;13.68;6.22;;;3.90;91.80;;;;;;5109758;28;20051;-60
2021/04/28 00:21:29;;;;;;;10.20;5.90;;;3.60;91.20;;;;;;5109651;28;20047;-59
2021/04/28 00:23:55;;;;;;;8.68;5.60;;;3.80;92.50;;;;;;5091255;28;20482;-60
2021/04/28 00:26:21;;;;;;;11.88;6.07;;;4.10;93.20;;;;;;5109756;28;20552;-61
2021/04/28 00:28:47;;;;;;;12.70;5.77;;;3.80;93.20;;;;;;5091348;28;20044;-59
2021/04/28 00:31:13;;;;;;;13.63;6.10;;;3.80;93.20;;;;;;5109519;28;20063;-60
2021/04/28 00:33:40;;;;;;;12.98;6.47;;;3.80;94.20;;;;;;5091445;28;20040;-61
2021/04/28 00:36:06;;;;;;;13.30;6.43;;;3.70;94.10;;;;;;5109501;28;20043;-60
2021/04/28 00:38:33;;;;;;;11.45;6.53;;;3.70;94.10;;;;;;5109752;28;20106;-60
2021/04/28 00:41:00;;;;;;;9.27;5.95;;;3.40;92.90;;;;;;5109495;28;20134;-60
2021/04/28 00:43:26;;;;;;;9.88;6.10;;;3.60;92.90;;;;;;5109662;28;20089;-60
2021/04/28 00:45:52;;;;;;;12.02;6.50;;;3.70;94.40;;;;;;5109646;28;20118;-59
2021/04/28 00:48:18;;;;;;;12.00;6.07;;;3.70;93.60;;;;;;5109424;28;20150;-60
2021/04/28 00:50:49;;;;;;;20.43;6.50;;;3.60;94.40;;;;;;5109394;28;20570;-60
2021/04/28 00:53:17;;;;;;;11.15;6.38;;;3.70;94.70;;;;;;5109450;28;20092;-60
2021/04/28 00:55:44;;;;;;;11.40;6.35;;;3.60;94.00;;;;;;5109190;28;20048;-60
2021/04/28 00:58:10;;;;;;;11.88;6.22;;;3.60;94.50;;;;;;5109140;28;20449;-58
2021/04/28 01:00:36;;;;;;;9.25;5.78;;;3.60;94.30;;;;;;5109203;28;20043;-60
2021/04/28 01:03:03;;;;;;;9.88;6.35;;;3.60;92.60;;;;;;5090855;28;20123;-59
2021/04/28 01:05:30;;;;;;;11.60;6.20;;;3.60;93.00;;;;;;5091064;28;20048;-60
2021/04/28 01:07:56;;;;;;;9.40;6.20;;;3.60;93.10;;;;;;5108873;28;20486;-58
2021/04/28 01:10:26;;;;;;;7.53;5.57;;;3.60;93.30;;;;;;5109216;28;20105;-60
2021/04/28 01:12:53;;;;;;;19.20;6.43;;;3.60;93.50;;;;;;5108981;28;20053;-59
2021/04/28 01:15:25;;;;;;;8.82;5.82;;;3.60;93.20;;;;;;5109308;28;20050;-61
2021/04/28 01:17:51;;;;;;;11.77;6.30;;;3.50;94.10;;;;;;5108964;28;20051;-60
2021/04/28 01:20:19;;;;;;;7.38;6.07;;;3.50;94.10;;;;;;5108803;28;20043;-60
2021/04/28 01:22:46;;;;;;;9.02;5.95;;;3.50;93.90;;;;;;5109291;28;20078;-60
2021/04/28 01:25:15;;;;;;;8.25;5.63;;;3.50;93.80;;;;;;5090457;28;20402;-59
2021/04/28 01:27:47;;;;;;;9.35;6.25;;;3.40;93.60;;;;;;5090838;28;20147;-60
2021/04/28 01:30:14;;;;;;;10.45;6.18;;;3.40;93.30;;;;;;5109036;28;20388;-63
2021/04/28 01:32:46;;;;;;;9.18;5.80;;;3.40;94.50;;;;;;5108611;28;20051;-59
2021/04/28 01:35:18;;;;;;;8.93;5.53;;;3.40;94.10;;;;;;5108826;28;20036;-61
2021/04/28 01:37:45;;;;;;;9.43;6.30;;;3.30;94.40;;;;;;5108867;28;20410;-64
2021/04/28 01:40:13;;;;;;;9.35;5.85;;;3.30;94.70;;;;;;5110689;28;20422;-60
2021/04/28 01:42:42;;;;;;;11.30;5.93;;;3.30;94.80;;;;;;5112765;28;20518;-61
2021/04/28 01:45:09;;;;;;;12.80;5.57;;;3.30;94.30;;;;;;5112451;28;20478;-60
2021/04/28 01:47:35;;;;;;;9.68;6.50;;;3.20;95.10;;;;;;5112595;28;20108;-60
2021/04/28 01:50:01;;;;;;;13.93;6.23;;;3.20;94.60;;;;;;5093770;28;20044;-60
2021/04/28 01:52:27;;;;;;;9.57;6.35;;;3.20;96.30;;;;;;5112696;28;20293;-60
2021/04/28 01:54:53;;;;;;;9.20;5.40;;;3.20;95.20;;;;;;5112552;28;20047;-59
2021/04/28 01:57:19;;;;;;;12.97;6.30;;;3.20;95.30;;;;;;5112517;28;20040;-60
2021/04/28 01:59:45;;;;;;;10.20;5.83;;;3.10;95.30;;;;;;5112198;28;20660;-60
2021/04/28 02:02:12;;;;;;;10.50;5.90;;;3.10;94.60;;;;;;5112225;28;20071;-60
2021/04/28 02:04:38;;;;;;;10.07;5.80;;;3.10;95.30;;;;;;5112627;28;20088;-60
2021/04/28 02:07:04;;;;;;;10.77;5.67;;;3.10;97.00;;;;;;5112288;28;20044;-60
2021/04/28 02:09:31;;;;;;;14.68;6.65;;;3.00;96.90;;;;;;5112030;28;20075;-60
2021/04/28 02:11:58;;;;;;;9.00;6.55;;;3.00;97.00;;;;;;5112390;28;20054;-60
2021/04/28 02:14:25;;;;;;;10.35;6.20;;;2.90;97.40;;;;;;5093845;28;20047;-60
2021/04/28 02:16:51;;;;;;;13.02;6.15;;;2.90;97.90;;;;;;5112289;28;20055;-58
2021/04/28 02:19:18;;;;;;;8.57;5.90;;;2.80;97.90;;;;;;5111742;28;20056;-61
2021/04/28 02:21:49;;;;;;;10.65;5.88;;;2.90;97.70;;;;;;5112397;28;20040;-60
2021/04/28 02:24:15;;;;;;;8.55;5.88;;;2.90;97.80;;;;;;5112189;28;20151;-60
2021/04/28 02:26:43;;;;;;;10.33;6.43;;;2.90;97.50;;;;;;5111926;28;20094;-60
2021/04/28 02:29:08;;;;;;;9.98;6.28;;;2.90;97.90;;;;;;5111901;28;20475;-60
2021/04/28 02:31:36;;;;;;;8.03;5.63;;;2.90;97.90;;;;;;5112131;28;20039;-60
2021/04/28 02:34:04;;;;;;;12.23;5.93;;;2.90;97.80;;;;;;5111872;28;20043;-60
2021/04/28 02:36:33;;;;;;;13.88;5.72;;;2.90;97.80;;;;;;5111707;28;20169;-60
2021/04/28 02:39:10;;;;;;;10.15;6.53;;;2.90;97.90;;;;;;5111833;28;20514;-61
2021/04/28 02:41:41;;;;;;;10.02;5.43;;;2.90;97.60;;;;;;5111935;28;20091;-60
2021/04/28 02:44:11;;;;;;;13.15;5.53;;;3.00;97.00;;;;;;5111662;28;20123;-60
2021/04/28 02:46:38;;;;;;;11.32;5.93;;;3.00;96.70;;;;;;5111575;28;20039;-60
2021/04/28 02:49:05;;;;;;;7.32;5.72;;;3.10;96.20;;;;;;5111663;28;20101;-61
2021/04/28 02:51:33;;;;;;;6.22;5.07;;;3.10;96.40;;;;;;5091448;28;20414;-59
2021/04/28 02:54:04;;;;;;;7.15;5.65;;;3.10;96.50;;;;;;5111192;28;20385;-62
2021/04/28 02:56:30;;;;;;;10.18;5.15;;;3.10;97.30;;;;;;5111336;28;20429;-60
2021/04/28 02:58:57;;;;;;;8.77;5.47;;;3.10;96.30;;;;;;5111261;28;20047;-60
2021/04/28 03:01:25;;;;;;;7.78;5.47;;;3.10;96.30;;;;;;5111336;28;20058;-60
2021/04/28 03:03:55;;;;;;;7.35;5.07;;;3.10;96.50;;;;;;5111563;28;20062;-60
2021/04/28 03:06:21;;;;;;;12.05;6.82;;;3.10;96.40;;;;;;5111348;28;20072;-60
2021/04/28 03:08:47;;;;;;;10.83;5.57;;;3.10;97.00;;;;;;5111037;28;20071;-60
2021/04/28 03:11:14;;;;;;;10.50;5.38;;;3.10;97.00;;;;;;5111074;28;20530;-60
2021/04/28 03:13:42;;;;;;;7.50;5.47;;;3.10;96.70;;;;;;5111020;28;20039;-60
2021/04/28 03:16:09;;;;;;;10.45;6.10;;;3.10;96.90;;;;;;5110897;28;20105;-60
2021/04/28 03:18:37;;;;;;;9.43;5.55;;;3.00;98.20;;;;;;5110861;28;20093;-60
2021/04/28 03:21:04;;;;;;;12.23;6.07;;;3.40;97.40;;;;;;5110737;28;20394;-59
2021/04/28 03:23:30;;;;;;;8.85;5.45;;;3.00;98.30;;;;;;5111140;28;20112;-60
2021/04/28 03:25:56;;;;;;;11.37;5.67;;;3.00;98.60;;;;;;5091974;28;20490;-60
2021/04/28 03:28:21;;;;;;;11.13;5.50;;;3.00;97.70;;;;;;5110681;28;20077;-60
2021/04/28 03:30:47;;;;;;;11.10;5.90;;;3.00;98.40;;;;;;5110453;28;20044;-61
2021/04/28 03:33:13;;;;;;;8.87;5.43;;;3.00;98.60;;;;;;5091878;28;20047;-59
2021/04/28 03:35:39;;;;;;;9.43;5.63;;;2.90;98.30;;;;;;5109947;28;20040;-59
2021/04/28 03:38:04;;;;;;;9.63;5.07;;;2.90;98.40;;;;;;5091969;28;20046;-60
2021/04/28 03:40:31;;;;;;;9.40;5.23;;;2.90;98.30;;;;;;5110155;28;20130;-60
2021/04/28 03:42:56;;;;;;;8.48;5.30;;;2.80;98.50;;;;;;5110499;28;20331;-60
2021/04/28 03:45:22;;;;;;;8.43;5.13;;;2.80;98.20;;;;;;5110211;28;20119;-60
2021/04/28 03:47:48;;;;;;;8.87;5.93;;;2.80;99.60;;;;;;5110439;28;20134;-61
2021/04/28 03:50:14;;;;;;;7.17;5.07;;;2.80;99.60;;;;;;5110053;28;20621;-60
2021/04/28 03:52:41;;;;;;;11.52;5.60;;;2.70;99.90;;;;;;5092101;28;20168;-59
2021/04/28 03:55:08;;;;;;;8.73;5.28;;;2.70;99.80;;;;;;5109794;28;20380;-60
2021/04/28 03:57:34;;;;;;;9.57;5.50;;;2.60;99.80;;;;;;5109427;28;20484;-60
2021/04/28 04:00:00;;;;;;;8.38;5.80;;;2.60;99.90;;;;;;5109320;28;20055;-61
2021/04/28 04:02:29;;;;;;;6.43;5.17;;;2.50;99.90;;;;;;5108919;28;20439;-59
2021/04/28 04:04:55;;;;;;;8.27;5.40;;;2.40;99.90;;;;;;5109306;28;20043;-60
2021/04/28 04:07:21;;;;;;;6.93;4.77;;;2.40;99.90;;;;;;5091551;28;20122;-59
2021/04/28 04:09:47;;;;;;;12.90;4.87;;;2.40;99.90;;;;;;5109728;28;20047;-60
2021/04/28 04:12:13;;;;;;;6.23;5.07;;;2.40;99.90;;;;;;5109571;28;20054;-60
2021/04/28 04:14:39;;;;;;;7.68;5.13;;;2.40;99.90;;;;;;5109128;28;20126;-58
2021/04/28 04:17:04;;;;;;;12.33;5.33;;;2.40;99.90;;;;;;5091461;28;20139;-60
2021/04/28 04:19:30;;;;;;;8.97;5.17;;;2.40;99.90;;;;;;5091497;28;20128;-60
2021/04/28 04:21:56;;;;;;;8.10;5.47;;;2.40;99.70;;;;;;5109803;28;20036;-60
2021/04/28 04:24:22;;;;;;;7.87;5.23;;;2.40;99.90;;;;;;5109707;28;20325;-60
2021/04/28 04:26:47;;;;;;;6.33;5.27;;;2.40;99.90;;;;;;5091214;28;20121;-61
2021/04/28 04:29:13;;;;;;;10.23;4.90;;;2.40;99.90;;;;;;5109461;28;20050;-60
2021/04/28 04:31:39;;;;;;;7.57;4.97;;;2.40;99.90;;;;;;5109546;28;20167;-58
2021/04/28 04:34:05;;;;;;;8.43;5.40;;;2.50;99.90;;;;;;5090678;28;20124;-60
2021/04/28 04:36:31;;;;;;;6.67;5.20;;;2.50;99.90;;;;;;5109627;28;20599;-60
2021/04/28 04:38:57;;;;;;;8.88;5.30;;;2.50;99.90;;;;;;5109632;28;20182;-61
2021/04/28 04:41:22;;;;;;;9.87;5.80;;;2.50;99.90;;;;;;5109340;28;20112;-60
2021/04/28 04:43:48;;;;;;;7.10;4.97;;;2.50;99.90;;;;;;5109347;28;20043;-61
2021/04/28 04:46:14;;;;;;;11.07;4.77;;;2.60;99.90;;;;;;5091062;28;20044;-61
2021/04/28 04:48:40;;;;;;;12.60;5.57;;;2.80;99.90;;;;;;5109272;28;20047;-61
2021/04/28 04:51:06;;;;;;;7.60;5.30;;;2.90;99.90;;;;;;5109658;28;20047;-61
2021/04/28 04:53:32;;;;;;;8.65;5.65;;;3.10;99.90;;;;;;5109259;28;20043;-61
2021/04/28 04:55:57;;;;;;;9.53;5.07;;;3.20;99.90;;;;;;5109304;28;20143;-62
2021/04/28 04:58:23;;;;;;;10.00;5.10;;;3.40;99.50;;;;;;5091217;28;20047;-61
2021/04/28 05:00:49;;;;;;;7.47;5.27;;;3.50;99.00;;;;;;5109033;28;20088;-60
2021/04/28 05:03:15;;;;;;;11.73;4.80;;;3.70;98.00;;;;;;5090667;28;20082;-61
2021/04/28 05:05:40;;;;;;;5.97;5.17;;;3.80;97.90;;;;;;5109078;28;20760;-61
2021/04/28 05:08:07;;;;;;;10.03;5.20;;;3.90;98.00;;;;;;5108837;28;20048;-61
2021/04/28 05:10:32;;;;;;;6.28;5.07;;;4.10;97.70;;;;;;5090607;28;20066;-61
2021/04/28 05:12:58;;;;;;;8.63;5.20;;;4.20;96.70;;;;;;5109187;28;20070;-62
2021/04/28 05:15:25;;;;;;;8.02;4.47;;;4.30;96.50;;;;;;5111758;28;20039;-61
2021/04/28 05:17:51;;;;;;;5.68;4.47;;;4.50;96.20;;;;;;5113224;28;20141;-63
2021/04/28 05:20:17;;;;;;;9.97;5.17;;;4.60;95.50;;;;;;5113362;28;20055;-59
2021/04/28 05:22:42;;;;;;;8.20;5.17;;;4.70;94.70;;;;;;5112764;28;20617;-62
2021/04/28 05:25:09;;;;;;;6.93;4.47;;;4.80;94.40;;;;;;5113169;28;20397;-61
2021/04/28 05:27:35;;;;;;;6.25;4.40;;;5.00;93.60;;;;;;5112903;28;20482;-64
2021/04/28 05:30:01;;;;;;;6.80;4.13;;;5.10;91.00;;;;;;5112670;28;20088;-60
2021/04/28 05:32:27;;;;;;;6.07;4.18;;;5.10;93.60;;;;;;5113069;28;20112;-58
2021/04/28 05:34:53;;;;;;;9.37;4.43;;;5.30;92.90;;;;;;5112948;28;20048;-61
2021/04/28 05:37:19;;;;;;;5.95;4.50;;;5.30;91.80;;;;;;5112456;28;20044;-61
2021/04/28 05:39:48;;;;;;;5.65;4.18;;;5.40;91.30;;;;;;5111098;28;20455;-59
2021/04/28 05:42:15;;;;;;;10.38;4.18;;;5.50;88.10;;;;;;5112575;28;20072;-60
2021/04/28 05:44:42;;;;;;;5.68;4.32;;;5.60;89.40;;;;;;5112538;28;20070;-60
2021/04/28 05:47:07;;;;;;;7.32;3.90;;;5.80;89.30;;;;;;5112514;28;20055;-61
2021/04/28 05:49:34;;;;;;;9.77;4.20;;;5.90;89.40;;;;;;5094287;28;20052;-60
2021/04/28 05:51:59;;;;;;;7.67;4.10;;;6.00;86.40;;;;;;5112564;28;20047;-61
2021/04/28 05:54:25;;;;;;;8.67;4.03;;;6.10;84.00;;;;;;5112591;28;20297;-61
2021/04/28 05:56:51;;;;;;;8.47;4.00;;;6.20;81.40;;;;;;5105230;28;20552;-60
2021/04/28 05:59:16;;;;;;;9.40;4.33;;;6.30;82.80;;;;;;5091594;28;20063;-60
2021/04/28 06:01:42;;;;;;;11.23;4.70;;;6.30;80.40;;;;;;5091829;28;20092;-62
2021/04/28 06:04:08;;;;;;;7.67;3.90;;;6.40;80.50;;;;;;5092368;28;20336;-59
2021/04/28 06:06:34;;;;;;;7.37;4.40;;;6.60;77.10;;;;;;5092415;28;20044;-61
2021/04/28 06:08:59;;;;;;;5.23;3.90;;;6.70;78.00;;;;;;5092002;28;20059;-61
2021/04/28 06:11:25;;;;;;;4.37;3.63;;;6.70;70.60;;;;;;5093242;28;20044;-60
2021/04/28 06:13:50;;;;;;;8.17;4.10;;;6.70;70.40;;;;;;5091815;28;20138;-61
2021/04/28 06:16:18;;;;;;;5.93;4.27;;;6.70;69.90;;;;;;5091628;28;20182;-61
2021/04/28 06:18:44;;;;;;;7.07;4.57;;;6.80;69.70;;;;;;5090653;28;20400;-61
2021/04/28 06:21:10;;;;;;;9.57;3.90;;;6.90;69.60;;;;;;5089178;28;20404;-60
2021/04/28 06:23:37;;;;;;;8.43;4.30;;;6.90;69.30;;;;;;5089577;28;20122;-61
2021/04/28 06:26:03;;;;;;;7.43;4.13;;;6.80;67.30;;;;;;5089577;28;20792;-62
2021/04/28 06:28:29;;;;;;;5.43;3.83;;;6.80;67.40;;;;;;5089356;28;20385;-62
2021/04/28 06:30:55;;;;;;;6.17;4.33;;;6.80;65.90;;;;;;5089270;28;20927;-61
2021/04/28 06:33:21;;;;;;;9.52;4.40;;;6.80;65.60;;;;;;5089323;28;20494;-60
2021/04/28 06:35:47;;;;;;;6.57;4.20;;;6.70;63.40;;;;;;5089799;28;20161;-61
2021/04/28 06:38:12;;;;;;;8.57;4.60;;;6.80;63.90;;;;;;5089325;28;20048;-61
2021/04/28 06:40:39;;;;;;;7.50;4.40;;;6.80;65.40;;;;;;5090088;28;20052;-62
2021/04/28 06:43:05;;;;;;;6.55;4.38;;;6.80;63.80;;;;;;5090837;28;20367;-62
2021/04/28 06:45:32;;;;;;;5.90;4.50;;;6.80;62.70;;;;;;5088399;28;20047;-60
2021/04/28 06:47:58;;;;;;;8.70;4.40;;;6.80;62.30;;;;;;5088673;28;20048;-61
2021/04/28 06:50:24;;;;;;;5.63;4.30;;;6.80;61.40;;;;;;5089243;28;20046;-60
2021/04/28 06:52:51;;;;;;;12.25;4.50;;;6.90;61.50;;;;;;5089447;28;20102;-61
2021/04/28 06:55:17;;;;;;;11.80;5.00;;;6.90;63.00;;;;;;5088980;28;20048;-61
2021/04/28 06:57:43;;;;;;;6.93;4.13;;;6.90;61.60;;;;;;5088711;28;20089;-62
2021/04/28 07:00:09;;;;;;;8.67;4.73;;;7.00;62.70;;;;;;5088839;28;20170;-61
2021/04/28 07:02:35;;;;;;;6.32;4.53;;;7.10;63.00;;;;;;5088858;28;20512;-61
2021/04/28 07:05:00;;;;;;;8.53;4.63;;;7.10;61.80;;;;;;5089096;28;20040;-61
2021/04/28 07:07:26;;;;;;;8.77;4.50;;;7.20;60.40;;;;;;5088258;28;20043;-61
2021/04/28 07:09:51;;;;;;;8.47;4.53;;;7.20;61.10;;;;;;5088936;28;20514;-61
2021/04/28 07:12:17;;;;;;;7.47;4.40;;;7.30;61.60;;;;;;5088799;28;20119;-62
2021/04/28 07:14:43;;;;;;;6.20;4.50;;;7.40;61.20;;;;;;5070710;28;20051;-61
2021/04/28 07:17:10;;;;;;;4.85;4.18;;;7.40;61.10;;;;;;5088645;28;20302;-61
2021/04/28 07:19:36;;;;;;;14.87;4.40;;;7.40;60.90;;;;;;5088621;28;20051;-61
2021/04/28 07:22:02;;;;;;;7.63;4.40;;;7.50;60.90;;;;;;5088847;28;20330;-61
2021/04/28 07:24:27;;;;;;;8.63;4.90;;;7.60;61.20;;;;;;5088541;28;20044;-61
2021/04/28 07:26:56;;;;;;;12.63;4.87;;;7.70;61.10;;;;;;5070134;28;20294;-62
2021/04/28 07:29:22;;;;;;;10.68;4.53;;;7.80;60.60;;;;;;5088411;28;20502;-61
2021/04/28 07:31:48;;;;;;;12.40;4.90;;;7.90;60.50;;;;;;5089069;28;20036;-65
2021/04/28 07:34:13;;;;;;;9.27;4.37;;;7.90;61.30;;;;;;5088303;28;20113;-62
2021/04/28 07:36:40;;;;;;;8.27;4.80;;;8.10;61.00;;;;;;5088701;28;20123;-63
2021/04/28 07:39:07;;;;;;;5.93;4.05;;;8.20;58.70;;;;;;5088428;28;20040;-65
2021/04/28 07:41:34;;;;;;;10.23;5.10;;;8.20;58.30;;;;;;5088305;28;20048;-61
2021/04/28 07:44:00;;;;;;;8.90;5.00;;;8.30;60.30;;;;;;5088086;28;20394;-62
2021/04/28 07:46:27;;;;;;;9.43;4.40;;;8.40;59.70;;;;;;5088020;28;20044;-61
2021/04/28 07:48:53;;;;;;;10.90;4.80;;;8.40;59.20;;;;;;5088206;28;20044;-62
2021/04/28 07:51:19;;;;;;;7.25;4.45;;;8.50;60.60;;;;;;5088004;28;20052;-61
2021/04/28 07:53:45;;;;;;;12.90;4.87;;;8.50;60.00;;;;;;5087773;28;20066;-62
2021/04/28 07:56:10;;;;;;;9.97;4.73;;;8.60;59.00;;;;;;5087864;28;20048;-61
2021/04/28 07:58:36;;;;;;;9.57;4.47;;;8.70;59.10;;;;;;5088150;28;20184;-62
2021/04/28 08:01:03;;;;;;;7.80;4.80;;;8.80;57.30;;;;;;5088008;28;20043;-62
2021/04/28 08:03:28;;;;;;;7.43;4.70;;;8.90;58.80;;;;;;5087824;28;20773;-59
2021/04/28 08:05:54;;;;;;;6.87;5.20;;;9.00;58.70;;;;;;5087994;28;20075;-62
2021/04/28 08:08:20;;;;;;;8.57;4.67;;;9.10;57.80;;;;;;5087601;28;20455;-61
2021/04/28 08:10:45;;;;;;;10.07;5.37;;;9.20;57.60;;;;;;5087803;28;20119;-62
2021/04/28 08:13:11;;;;;;;11.83;4.60;;;9.30;55.50;;;;;;5087671;28;20036;-59
2021/04/28 08:15:39;;;;;;;8.17;4.80;;;9.50;55.40;;;;;;5087827;28;20479;-61
2021/04/28 08:18:06;;;;;;;9.17;4.83;;;9.50;55.10;;;;;;5049048;28;20045;-61
2021/04/28 08:20:37;;;;;;;10.87;4.87;;;9.60;54.10;;;;;;5048443;28;20329;-62
2021/04/28 08:23:03;;;;;;;9.73;5.07;;;9.70;53.50;;;;;;5047518;28;20382;-62
2021/04/28 08:25:28;;;;;;;6.87;4.40;;;9.80;54.10;;;;;;5049031;28;20871;-60
2021/04/28 08:27:54;;;;;;;8.43;4.70;;;9.80;53.40;;;;;;5047132;28;20076;-60
2021/04/28 08:30:20;;;;;;;13.00;4.60;;;9.80;53.50;;;;;;5045772;28;20449;-60
2021/04/28 08:32:46;;;;;;;10.57;4.90;;;9.90;53.70;;;;;;5047269;28;20072;-60
2021/04/28 08:35:14;;;;;;;18.13;5.43;;;10.00;52.80;;;;;;5047078;28;20421;-60
2021/04/28 08:37:40;;;;;;;9.70;4.70;;;10.10;52.60;;;;;;5046660;28;20766;-62
2021/04/28 08:40:06;;;;;;;11.27;5.30;;;10.20;52.00;;;;;;5045803;28;20311;-61
2021/04/28 08:42:32;;;;;;;7.00;4.90;;;10.30;50.70;;;;;;5047124;28;20417;-61
2021/04/28 08:44:59;;;;;;;46.37;6.33;;;10.40;51.50;;;;;;5047146;28;20330;-61
2021/04/28 08:47:25;;;;;;;15.60;5.30;;;10.40;51.20;;;;;;5045212;28;20387;-61
2021/04/28 08:49:50;;;;;;;18.23;5.57;;;10.50;50.60;;;;;;5044384;28;20690;-61
2021/04/28 08:52:16;;;;;;;21.87;5.77;;;10.60;50.70;;;;;;5047015;28;20476;-61
2021/04/28 08:54:42;;;;;;;38.37;6.23;;;10.60;51.20;;;;;;5047080;28;20049;-61
2021/04/28 08:57:10;;;;;;;38.37;5.83;;;10.70;51.60;;;;;;5046418;28;20682;-61
2021/04/28 08:59:36;;;;;;;21.43;5.83;;;10.80;50.10;;;;;;5047005;28;20072;-61
2021/04/28 09:02:21;;;;;;;14.90;5.23;;;10.90;50.80;;;;;;5046801;28;20292;-61
2021/04/28 09:05:01;;;;;;;12.07;5.33;;;11.10;48.90;;;;;;5046570;28;20761;-60
2021/04/28 09:07:30;;;;;;;15.43;5.47;;;11.20;49.50;;;;;;5046841;28;20759;-61
2021/04/28 09:10:05;;;;;;;16.90;5.60;;;11.30;49.90;;;;;;5046340;28;20291;-62
2021/04/28 09:12:31;;;;;;;15.03;6.00;;;11.40;47.70;;;;;;5046809;28;20291;-62
2021/04/28 09:14:57;;;;;;;11.90;5.63;;;11.40;47.80;;;;;;5047219;28;20295;-61
2021/04/28 09:17:22;;;;;;;16.70;5.87;;;11.50;48.60;;;;;;5074752;28;20461;-61
2021/04/28 09:19:54;;;;;;;18.83;6.40;;;11.50;48.60;;;;;;5052026;28;20048;-61
2021/04/28 09:22:22;;;;;;;16.60;5.80;;;11.60;46.70;;;;;;5087285;28;20304;-61
2021/04/28 09:24:50;;;;;;;11.50;5.90;;;11.80;47.00;;;;;;5086609;28;20298;-60
2021/04/28 09:27:34;;;;;;;9.63;5.63;;;12.00;45.40;;;;;;5086927;28;20347;-62
2021/04/28 09:30:04;;;;;;;11.83;5.80;;;12.00;44.90;;;;;;5086987;28;20735;-61
2021/04/28 09:32:38;;;;;;;8.20;5.87;;;12.10;44.30;;;;;;5086298;28;20047;-61
2021/04/28 09:35:18;;;;;;;8.73;5.43;;;12.20;43.70;;;;;;5086749;28;20317;-61
2021/04/28 09:37:54;;;;;;;8.17;5.50;;;12.20;43.10;;;;;;5086626;28;20036;-61
2021/04/28 09:40:37;;;;;;;10.03;6.07;;;12.30;43.20;;;;;;5086149;28;20864;-61
2021/04/28 09:43:03;;;;;;;13.80;5.50;;;12.30;43.20;;;;;;5086622;28;20385;-61
2021/04/28 09:45:51;;;;;;;9.77;5.60;;;12.40;44.30;;;;;;5086002;28;20443;-61
2021/04/28 09:48:22;;;;;;;11.10;5.83;;;12.60;42.90;;;;;;5086691;28;20264;-62
2021/04/28 09:50:48;;;;;;;9.20;6.07;;;12.60;42.60;;;;;;5085910;28;20294;-61
2021/04/28 09:53:24;;;;;;;7.90;5.97;;;12.60;42.40;;;;;;5086628;28;20309;-61
2021/04/28 09:55:50;;;;;;;7.33;5.90;;;12.60;41.10;;;;;;5086577;28;20321;-61
2021/04/28 09:58:16;;;;;;;8.97;5.77;;;12.80;40.70;;;;;;5086181;28;20318;-61
2021/04/28 10:00:42;;;;;;;9.77;6.13;;;12.80;41.70;;;;;;5087435;28;20318;-62
2021/04/28 10:03:09;;;;;;;9.97;6.13;;;13.00;42.80;;;;;;5089903;28;20047;-60
2021/04/28 10:05:41;;;;;;;8.73;5.97;;;13.00;42.10;;;;;;5055504;28;20492;-60
2021/04/28 10:08:21;;;;;;;9.73;7.00;;;13.00;41.40;;;;;;5089821;28;20382;-60
2021/04/28 10:10:50;;;;;;;7.37;5.77;;;13.00;40.30;;;;;;5089769;28;20294;-60
2021/04/28 10:13:16;;;;;;;8.50;6.43;;;13.00;40.40;;;;;;5090118;28;20305;-60
2021/04/28 10:15:44;;;;;;;10.67;6.10;;;13.00;39.70;;;;;;5089069;28;20757;-60
2021/04/28 10:18:12;;;;;;;12.23;6.27;;;13.10;41.10;;;;;;5089825;28;20298;-61
2021/04/28 10:20:40;;;;;;;10.63;6.17;;;13.30;42.90;;;;;;5089813;28;20333;-61
2021/04/28 10:23:08;;;;;;;12.07;6.23;;;13.40;40.30;;;;;;5089148;28;20290;-61
2021/04/28 10:25:35;;;;;;;8.43;6.17;;;13.40;41.00;;;;;;5091961;28;20318;-64
2021/04/28 10:28:02;;;;;;;10.73;6.53;;;13.50;41.10;;;;;;5093320;28;20312;-64
2021/04/28 10:30:29;;;;;;;8.93;6.53;;;13.40;39.40;;;;;;5092823;28;20332;-65
2021/04/28 10:32:56;;;;;;;13.67;7.40;;;13.50;40.40;;;;;;5092439;28;20345;-64
2021/04/28 10:35:26;;;;;;;11.83;6.70;;;13.50;38.60;;;;;;5093511;28;20770;-64
2021/04/28 10:37:52;;;;;;;8.07;6.17;;;13.70;39.80;;;;;;5092467;28;20301;-64
2021/04/28 10:40:20;;;;;;;11.63;6.20;;;13.70;40.10;;;;;;5091544;28;20992;-66
2021/04/28 10:42:47;;;;;;;11.47;6.67;;;13.80;40.30;;;;;;5091857;28;20844;-65
2021/04/28 10:45:19;;;;;;;7.37;6.43;;;14.00;40.00;;;;;;5091667;28;20312;-65
2021/04/28 10:47:49;;;;;;;10.83;6.93;;;14.10;40.00;;;;;;5091513;28;20298;-62
2021/04/28 10:50:23;;;;;;;16.00;6.90;;;14.00;38.90;;;;;;5091107;28;20289;-61
2021/04/28 10:52:54;;;;;;;9.18;6.78;;;14.10;39.40;;;;;;5097325;28;20292;-62
2021/04/28 10:55:45;;;;;;;12.30;7.20;;;14.30;38.70;;;;;;5112104;28;20066;-62
2021/04/28 10:58:24;;;;;;;11.77;6.97;;;14.30;39.00;;;;;;5111656;28;20384;-62
2021/04/28 11:00:59;;;;;;;10.87;6.93;;;14.30;38.60;;;;;;5111692;28;20317;-62
2021/04/28 11:03:31;;;;;;;9.83;7.60;;;14.40;39.50;;;;;;5111858;28;20356;-59
2021/04/28 11:06:17;;;;;;;12.63;7.33;;;14.50;39.30;;;;;;5111834;28;20320;-61
2021/04/28 11:09:11;;;;;;;9.93;7.57;;;14.50;38.00;;;;;;5111398;28;20302;-62
2021/04/28 11:11:46;;;;;;;8.77;7.47;;;14.50;37.60;;;;;;5098582;28;20316;-62
2021/04/28 11:14:23;;;;;;;13.77;7.40;;;14.50;38.40;;;;;;5111331;28;20384;-62
2021/04/28 11:16:50;;;;;;;11.73;7.13;;;14.60;38.40;;;;;;5111289;28;20290;-62
2021/04/28 11:19:22;;;;;;;12.00;6.93;;;14.70;39.40;;;;;;5112138;28;20297;-62
2021/04/28 11:22:03;;;;;;;9.23;6.63;;;14.70;37.80;;;;;;5112009;28;20297;-59
2021/04/28 11:24:57;;;;;;;13.13;7.33;;;14.90;37.00;;;;;;5110828;28;20316;-61
2021/04/28 11:27:41;;;;;;;16.40;7.80;;;14.80;36.50;;;;;;5110772;28;20300;-61
2021/04/28 11:30:23;;;;;;;9.10;7.03;;;14.90;36.20;;;;;;5110673;28;20768;-62
2021/04/28 11:33:08;;;;;;;11.53;7.93;;;14.90;37.50;;;;;;5110575;28;20293;-61
2021/04/28 11:35:35;;;;;;;16.07;7.93;;;14.80;36.30;;;;;;5091599;28;20645;-61
2021/04/28 11:38:03;;;;;;;12.63;7.33;;;14.90;37.50;;;;;;5108636;28;20316;-61
2021/04/28 11:40:29;;;;;;;11.07;7.60;;;15.00;35.80;;;;;;5108791;28;20320;-62
2021/04/28 11:42:54;;;;;;;8.80;7.67;;;15.10;36.60;;;;;;5108588;28;20297;-61
2021/04/28 11:45:20;;;;;;;15.50;8.63;;;15.10;36.40;;;;;;5108300;28;20039;-62
2021/04/28 11:47:46;;;;;;;13.03;7.60;;;15.20;36.90;;;;;;5108324;28;20039;-62
2021/04/28 11:50:11;;;;;;;15.87;8.07;;;15.20;37.00;;;;;;5090049;28;20040;-62
2021/04/28 11:52:39;;;;;;;12.57;8.10;;;15.10;36.10;;;;;;5108612;28;20039;-62
2021/04/28 11:55:04;;;;;;;10.70;7.80;;;15.20;36.30;;;;;;5108174;28;20063;-61
2021/04/28 11:57:32;;;;;;;13.07;7.90;;;15.30;36.70;;;;;;5108001;28;20297;-62
2021/04/28 12:00:11;;;;;;;12.27;7.40;;;15.30;36.50;;;;;;5108221;28;20044;-61
2021/04/28 12:02:38;;;;;;;9.77;7.60;;;15.60;36.40;;;;;;5108672;28;20293;-62
2021/04/28 12:05:06;;;;;;;11.33;8.23;;;15.70;35.30;;;;;;5107737;28;20285;-62
2021/04/28 12:07:33;;;;;;;10.93;8.40;;;15.90;35.60;;;;;;5108491;28;20289;-62
2021/04/28 12:09:58;;;;;;;18.50;8.67;;;16.00;33.80;;;;;;5107945;28;20301;-61
2021/04/28 12:12:29;;;;;;;21.23;7.87;;;16.00;35.00;;;;;;5108117;28;20307;-62
2021/04/28 12:15:04;;;;;;;9.70;7.83;;;16.00;34.70;;;;;;5108278;28;20077;-62
2021/04/28 12:17:30;;;;;;;13.97;8.57;;;16.00;35.10;;;;;;5108248;28;20305;-62
2021/04/28 12:19:56;;;;;;;14.97;7.93;;;16.00;35.40;;;;;;5108147;28;20312;-62
2021/04/28 12:22:24;;;;;;;13.97;8.30;;;16.20;35.30;;;;;;5107433;28;20804;-61
2021/04/28 12:24:52;;;;;;;12.50;8.10;;;16.00;34.30;;;;;;5091493;28;20300;-61
2021/04/28 12:27:26;;;;;;;10.80;8.07;;;16.00;34.60;;;;;;5108893;28;20824;-61
2021/04/28 12:30:06;;;;;;;13.50;8.63;;;16.20;35.10;;;;;;5105120;28;20380;-61
2021/04/28 12:32:40;;;;;;;11.83;8.57;;;16.40;35.50;;;;;;5087603;28;20799;-60
2021/04/28 12:35:11;;;;;;;12.50;8.70;;;16.30;33.70;;;;;;5105558;28;20342;-61
2021/04/28 12:37:38;;;;;;;15.53;8.33;;;16.30;34.00;;;;;;5106109;28;20503;-61
2021/04/28 12:40:09;;;;;;;12.43;8.13;;;16.50;33.90;;;;;;5105971;28;20309;-61
2021/04/28 12:42:37;;;;;;;12.47;8.23;;;16.60;33.80;;;;;;5087298;28;20293;-61
2021/04/28 12:45:13;;;;;;;16.03;8.43;;;16.40;34.10;;;;;;5107317;28;20437;-61
2021/04/28 12:47:39;;;;;;;13.30;8.10;;;16.40;34.20;;;;;;5107562;28;20300;-60
2021/04/28 12:50:07;;;;;;;11.50;8.93;;;16.30;34.10;;;;;;5107457;28;20387;-61
2021/04/28 12:52:38;;;;;;;10.13;8.10;;;16.10;32.80;;;;;;5107805;28;20747;-61